createdAt,value
2017-01-19T00:00:11.083Z,0
2017-01-19T00:01:11.104Z,0
2017-01-19T00:02:11.524Z,0
2017-01-19T00:03:11.941Z,0
2017-01-19T00:04:10.377Z,0
2017-01-19T00:05:11.594Z,0
2017-01-19T00:06:10.438Z,0
2017-01-19T00:07:11.259Z,0
2017-01-19T00:08:11.676Z,0
2017-01-19T00:09:10.504Z,0
2017-01-19T00:10:11.333Z,0
2017-01-19T00:11:11.749Z,0
2017-01-19T00:12:11.765Z,0
2017-01-19T00:13:11.810Z,0
2017-01-19T00:14:11.851Z,0
2017-01-19T00:15:11.059Z,0
2017-01-19T00:16:10.692Z,0
2017-01-19T00:17:10.713Z,0
2017-01-19T00:18:11.130Z,0
2017-01-19T00:19:11.170Z,0
2017-01-19T00:20:11.983Z,0
2017-01-19T00:21:11.995Z,0
2017-01-19T00:22:11.636Z,0
2017-01-19T00:23:11.252Z,0
2017-01-19T00:24:11.297Z,0
2017-01-19T00:25:11.714Z,0
2017-01-19T00:26:12.134Z,0
2017-01-19T00:27:11.358Z,0
2017-01-19T00:28:11.392Z,0
2017-01-19T00:29:12.206Z,0
2017-01-19T00:30:11.445Z,0
2017-01-19T00:31:11.857Z,0
2017-01-19T00:32:11.486Z,0
2017-01-19T00:33:11.123Z,0
2017-01-19T00:34:11.934Z,0
2017-01-19T00:35:12.775Z,0
2017-01-19T00:36:11.989Z,0
2017-01-19T00:37:12.401Z,0
2017-01-19T00:38:12.042Z,0
2017-01-19T00:39:12.463Z,0
2017-01-19T00:40:12.091Z,0
2017-01-19T00:41:11.319Z,0
2017-01-19T00:42:12.132Z,0
2017-01-19T00:43:12.176Z,0
2017-01-19T00:44:11.787Z,0
2017-01-19T00:45:11.818Z,0
2017-01-19T00:46:12.663Z,0
2017-01-19T00:47:13.059Z,0
2017-01-19T00:48:12.288Z,0
2017-01-19T00:49:12.321Z,0
2017-01-19T00:50:11.565Z,0
2017-01-19T00:51:12.364Z,0
2017-01-19T00:52:11.994Z,0
2017-01-19T00:53:12.015Z,0
2017-01-19T00:54:12.448Z,0
2017-01-19T00:55:12.481Z,0
2017-01-19T00:56:12.493Z,0
2017-01-19T00:57:12.542Z,0
2017-01-19T00:58:12.935Z,0
2017-01-19T00:59:12.576Z,0
2017-01-19T01:00:12.188Z,0
2017-01-19T01:01:12.224Z,0
2017-01-19T01:02:12.245Z,0
2017-01-19T01:03:12.274Z,0
2017-01-19T01:04:12.290Z,0
2017-01-19T01:05:13.119Z,0
2017-01-19T01:06:12.341Z,0
2017-01-19T01:07:11.984Z,0
2017-01-19T01:08:12.401Z,0
2017-01-19T01:09:12.425Z,0
2017-01-19T01:10:12.450Z,0
2017-01-19T01:11:12.471Z,0
2017-01-19T01:12:12.900Z,0
2017-01-19T01:13:12.132Z,0
2017-01-19T01:14:13.337Z,0
2017-01-19T01:15:12.969Z,0
2017-01-19T01:16:12.602Z,0
2017-01-19T01:17:13.023Z,0
2017-01-19T01:18:12.260Z,0
2017-01-19T01:19:13.076Z,0
2017-01-19T01:20:13.100Z,0
2017-01-19T01:21:12.725Z,0
2017-01-19T01:22:13.942Z,0
2017-01-19T01:23:13.575Z,0
2017-01-19T01:24:13.603Z,0
2017-01-19T01:25:12.823Z,0
2017-01-19T01:26:12.852Z,0
2017-01-19T01:27:13.277Z,0
2017-01-19T01:28:12.898Z,0
2017-01-19T01:29:13.321Z,0
2017-01-19T01:30:13.351Z,0
2017-01-19T01:31:13.796Z,0
2017-01-19T01:32:14.192Z,0
2017-01-19T01:33:28.317Z,0
2017-01-19T01:34:13.442Z,0
2017-01-19T01:35:13.870Z,0
2017-01-19T01:36:13.895Z,0
2017-01-19T01:37:13.912Z,0
2017-01-19T01:38:13.964Z,0
2017-01-19T01:39:13.969Z,0
2017-01-19T01:40:13.998Z,0
2017-01-19T01:41:14.422Z,0
2017-01-19T01:42:14.035Z,0
2017-01-19T01:43:14.068Z,0
2017-01-19T01:44:12.901Z,0
2017-01-19T01:45:13.722Z,0
2017-01-19T01:46:13.743Z,0
2017-01-19T01:47:13.804Z,0
2017-01-19T01:48:14.594Z,0
2017-01-19T01:49:13.826Z,0
2017-01-19T01:50:13.843Z,0
2017-01-19T01:51:13.876Z,0
2017-01-19T01:52:13.108Z,0
2017-01-19T01:53:13.942Z,0
2017-01-19T01:54:13.551Z,0
2017-01-19T01:55:14.372Z,0
2017-01-19T01:56:14.025Z,0
2017-01-19T01:57:14.446Z,0
2017-01-19T01:58:14.047Z,0
2017-01-19T01:59:13.287Z,0
2017-01-19T02:00:14.105Z,0
2017-01-19T02:01:13.342Z,0
2017-01-19T02:02:14.158Z,0
2017-01-19T02:03:13.392Z,0
2017-01-19T02:04:14.604Z,0
2017-01-19T02:05:15.018Z,0
2017-01-19T02:06:13.463Z,0
2017-01-19T02:07:14.671Z,0
2017-01-19T02:08:13.912Z,0
2017-01-19T02:09:14.321Z,0
2017-01-19T02:10:13.962Z,0
2017-01-19T02:11:14.381Z,0
2017-01-19T02:12:13.628Z,0
2017-01-19T02:13:14.821Z,0
2017-01-19T02:14:14.454Z,0
2017-01-19T02:15:14.483Z,0
2017-01-19T02:16:14.903Z,0
2017-01-19T02:17:14.137Z,0
2017-01-19T02:18:13.770Z,0
2017-01-19T02:19:14.591Z,0
2017-01-19T02:20:13.824Z,0
2017-01-19T02:21:14.634Z,0
2017-01-19T02:22:15.455Z,0
2017-01-19T02:23:15.079Z,0
2017-01-19T02:24:14.712Z,0
2017-01-19T02:25:14.725Z,0
2017-01-19T02:26:14.371Z,0
2017-01-19T02:27:14.779Z,0
2017-01-19T02:28:14.012Z,0
2017-01-19T02:29:15.228Z,0
2017-01-19T02:30:15.263Z,0
2017-01-19T02:31:15.679Z,0
2017-01-19T02:32:14.509Z,0
2017-01-19T02:33:14.929Z,0
2017-01-19T02:34:14.962Z,0
2017-01-19T02:35:15.784Z,0
2017-01-19T02:36:14.212Z,0
2017-01-19T02:37:14.638Z,0
2017-01-19T02:38:14.261Z,0
2017-01-19T02:39:15.884Z,0
2017-01-19T02:40:16.033Z,0
2017-01-19T02:41:14.737Z,0
2017-01-19T02:42:15.166Z,0
2017-01-19T02:43:14.391Z,0
2017-01-19T02:44:14.819Z,0
2017-01-19T02:45:15.237Z,0
2017-01-19T02:46:15.667Z,0
2017-01-19T02:47:15.699Z,0
2017-01-19T02:48:14.921Z,0
2017-01-19T02:49:14.533Z,0
2017-01-19T02:50:14.974Z,0
2017-01-19T02:51:14.983Z,0
2017-01-19T02:52:15.413Z,0
2017-01-19T02:53:15.045Z,0
2017-01-19T02:54:15.455Z,0
2017-01-19T02:55:16.279Z,0
2017-01-19T02:56:15.905Z,0
2017-01-19T02:57:15.137Z,0
2017-01-19T02:58:14.770Z,0
2017-01-19T02:59:15.596Z,0
2017-01-19T03:00:16.020Z,0
2017-01-19T03:01:15.244Z,0
2017-01-19T03:02:16.070Z,0
2017-01-19T03:03:16.102Z,0
2017-01-19T03:04:16.112Z,0
2017-01-19T03:05:15.368Z,0
2017-01-19T03:06:15.772Z,0
2017-01-19T03:07:15.794Z,0
2017-01-19T03:08:15.019Z,0
2017-01-19T03:09:15.839Z,0
2017-01-19T03:10:15.473Z,0
2017-01-19T03:11:15.893Z,0
2017-01-19T03:12:16.703Z,0
2017-01-19T03:13:15.539Z,0
2017-01-19T03:14:16.359Z,0
2017-01-19T03:15:15.589Z,0
2017-01-19T03:16:16.018Z,0
2017-01-19T03:17:16.035Z,0
2017-01-19T03:18:15.660Z,0
2017-01-19T03:19:16.465Z,0
2017-01-19T03:20:16.506Z,0
2017-01-19T03:21:16.527Z,0
2017-01-19T03:22:15.371Z,0
2017-01-19T03:23:16.180Z,0
2017-01-19T03:24:16.221Z,0
2017-01-19T03:25:15.470Z,0
2017-01-19T03:26:16.263Z,0
2017-01-19T03:27:16.680Z,0
2017-01-19T03:28:17.107Z,0
2017-01-19T03:29:16.341Z,0
2017-01-19T03:30:15.566Z,0
2017-01-19T03:31:16.011Z,0
2017-01-19T03:32:16.413Z,0
2017-01-19T03:33:16.433Z,0
2017-01-19T03:34:16.070Z,0
2017-01-19T03:35:16.886Z,0
2017-01-19T03:36:16.523Z,0
2017-01-19T03:37:16.531Z,0
2017-01-19T03:38:16.168Z,0
2017-01-19T03:39:16.191Z,0
2017-01-19T03:40:16.206Z,0
2017-01-19T03:41:16.629Z,0
2017-01-19T03:42:16.263Z,0
2017-01-19T03:43:17.077Z,0
2017-01-19T03:44:17.501Z,0
2017-01-19T03:45:16.738Z,0
2017-01-19T03:46:16.782Z,0
2017-01-19T03:47:16.379Z,0
2017-01-19T03:48:17.606Z,0
2017-01-19T03:49:17.229Z,0
2017-01-19T03:50:16.862Z,0
2017-01-19T03:51:16.871Z,0
2017-01-19T03:52:16.899Z,0
2017-01-19T03:53:17.733Z,0
2017-01-19T03:54:16.548Z,0
2017-01-19T03:55:16.982Z,0
2017-01-19T03:56:16.603Z,0
2017-01-19T03:57:17.827Z,0
2017-01-19T03:58:17.053Z,0
2017-01-19T03:59:17.077Z,0
2017-01-19T04:00:17.506Z,0
2017-01-19T04:01:16.726Z,0
2017-01-19T04:02:16.763Z,0
2017-01-19T04:03:17.180Z,0
2017-01-19T04:04:16.423Z,0
2017-01-19T04:05:16.433Z,0
2017-01-19T04:06:16.850Z,0
2017-01-19T04:07:17.678Z,0
2017-01-19T04:08:18.089Z,0
2017-01-19T04:09:17.337Z,0
2017-01-19T04:10:17.365Z,0
2017-01-19T04:11:16.586Z,0
2017-01-19T04:12:16.607Z,0
2017-01-19T04:13:17.024Z,0
2017-01-19T04:14:17.057Z,0
2017-01-19T04:15:18.265Z,0
2017-01-19T04:16:18.294Z,0
2017-01-19T04:17:17.527Z,0
2017-01-19T04:18:17.151Z,0
2017-01-19T04:19:16.780Z,0
2017-01-19T04:20:17.590Z,0
2017-01-19T04:21:17.622Z,0
2017-01-19T04:22:17.251Z,0
2017-01-19T04:23:18.064Z,0
2017-01-19T04:24:18.497Z,0
2017-01-19T04:25:17.729Z,0
2017-01-19T04:26:17.750Z,0
2017-01-19T04:27:17.371Z,0
2017-01-19T04:28:17.852Z,0
2017-01-19T04:29:17.425Z,0
2017-01-19T04:30:17.854Z,0
2017-01-19T04:31:18.270Z,0
2017-01-19T04:32:18.287Z,0
2017-01-19T04:33:17.519Z,0
2017-01-19T04:34:17.940Z,0
2017-01-19T04:35:17.189Z,0
2017-01-19T04:36:18.390Z,0
2017-01-19T04:37:18.015Z,0
2017-01-19T04:38:18.460Z,0
2017-01-19T04:39:18.461Z,0
2017-01-19T04:40:18.098Z,0
2017-01-19T04:41:18.522Z,0
2017-01-19T04:42:17.743Z,0
2017-01-19T04:43:17.764Z,0
2017-01-19T04:44:18.609Z,0
2017-01-19T04:45:18.213Z,0
2017-01-19T04:46:18.646Z,0
2017-01-19T04:47:18.655Z,0
2017-01-19T04:48:19.076Z,0
2017-01-19T04:49:18.321Z,0
2017-01-19T04:50:17.937Z,0
2017-01-19T04:51:18.362Z,0
2017-01-19T04:52:17.999Z,0
2017-01-19T04:53:18.008Z,0
2017-01-19T04:54:18.830Z,0
2017-01-19T04:55:19.250Z,0
2017-01-19T04:56:18.886Z,0
2017-01-19T04:57:18.106Z,0
2017-01-19T04:58:18.530Z,0
2017-01-19T04:59:17.782Z,0
2017-01-19T05:00:18.179Z,0
2017-01-19T05:01:18.207Z,0
2017-01-19T05:02:18.228Z,0
2017-01-19T05:03:19.449Z,0
2017-01-19T05:04:18.680Z,0
2017-01-19T05:05:17.905Z,0
2017-01-19T05:06:18.337Z,0
2017-01-19T05:07:19.174Z,0
2017-01-19T05:08:18.778Z,0
2017-01-19T05:09:18.798Z,0
2017-01-19T05:10:19.217Z,0
2017-01-19T05:11:18.847Z,0
2017-01-19T05:12:19.268Z,0
2017-01-19T05:13:19.292Z,0
2017-01-19T05:14:18.523Z,0
2017-01-19T05:15:19.733Z,0
2017-01-19T05:16:18.971Z,0
2017-01-19T05:17:18.992Z,0
2017-01-19T05:18:19.407Z,0
2017-01-19T05:19:19.043Z,0
2017-01-19T05:20:18.659Z,0
2017-01-19T05:21:19.483Z,0
2017-01-19T05:22:18.712Z,0
2017-01-19T05:23:18.736Z,0
2017-01-19T05:24:18.757Z,0
2017-01-19T05:25:19.182Z,0
2017-01-19T05:26:19.614Z,0
2017-01-19T05:27:19.646Z,0
2017-01-19T05:28:18.863Z,0
2017-01-19T05:29:19.267Z,0
2017-01-19T05:30:19.700Z,0
2017-01-19T05:31:18.570Z,0
2017-01-19T05:32:18.961Z,0
2017-01-19T05:33:20.166Z,0
2017-01-19T05:34:20.194Z,0
2017-01-19T05:35:19.435Z,0
2017-01-19T05:36:19.059Z,0
2017-01-19T05:37:19.476Z,0
2017-01-19T05:38:19.509Z,0
2017-01-19T05:39:18.726Z,0
2017-01-19T05:40:19.162Z,0
2017-01-19T05:41:19.978Z,0
2017-01-19T05:42:20.392Z,0
2017-01-19T05:43:20.024Z,0
2017-01-19T05:44:18.857Z,0
2017-01-19T05:45:19.286Z,0
2017-01-19T05:46:19.698Z,0
2017-01-19T05:47:19.723Z,0
2017-01-19T05:48:19.743Z,0
2017-01-19T05:49:19.372Z,0
2017-01-19T05:50:20.193Z,0
2017-01-19T05:51:20.217Z,0
2017-01-19T05:52:19.845Z,0
2017-01-19T05:53:19.467Z,0
2017-01-19T05:54:19.099Z,0
2017-01-19T05:55:19.912Z,0
2017-01-19T05:56:19.545Z,0
2017-01-19T05:57:20.381Z,0
2017-01-19T05:58:20.382Z,0
2017-01-19T05:59:20.424Z,0
2017-01-19T06:00:19.643Z,0
2017-01-19T06:01:20.062Z,0
2017-01-19T06:02:20.517Z,0
2017-01-19T06:03:19.705Z,0
2017-01-19T06:04:20.134Z,0
2017-01-19T06:05:20.195Z,0
2017-01-19T06:06:19.392Z,0
2017-01-19T06:07:21.000Z,0
2017-01-19T06:08:20.625Z,0
2017-01-19T06:09:19.862Z,0
2017-01-19T06:10:20.674Z,0
2017-01-19T06:11:20.307Z,0
2017-01-19T06:12:20.340Z,0
2017-01-19T06:13:20.352Z,0
2017-01-19T06:14:20.389Z,0
2017-01-19T06:15:20.806Z,0
2017-01-19T06:16:20.431Z,0
2017-01-19T06:17:20.874Z,0
2017-01-19T06:18:20.092Z,0
2017-01-19T06:19:20.109Z,0
2017-01-19T06:20:20.137Z,0
2017-01-19T06:21:20.162Z,0
2017-01-19T06:22:20.179Z,0
2017-01-19T06:23:20.216Z,0
2017-01-19T06:24:21.024Z,0
2017-01-19T06:25:20.649Z,0
2017-01-19T06:26:20.698Z,0
2017-01-19T06:27:20.735Z,0
2017-01-19T06:28:20.731Z,0
2017-01-19T06:29:20.360Z,0
2017-01-19T06:30:21.169Z,0
2017-01-19T06:31:20.405Z,0
2017-01-19T06:32:20.822Z,0
2017-01-19T06:33:21.254Z,0
2017-01-19T06:34:20.475Z,0
2017-01-19T06:35:20.504Z,0
2017-01-19T06:36:20.929Z,0
2017-01-19T06:37:20.958Z,0
2017-01-19T06:38:20.975Z,0
2017-01-19T06:39:20.627Z,0
2017-01-19T06:40:21.028Z,0
2017-01-19T06:41:21.052Z,0
2017-01-19T06:42:21.082Z,0
2017-01-19T06:43:21.102Z,0
2017-01-19T06:44:21.115Z,0
2017-01-19T06:45:20.759Z,0
2017-01-19T06:46:21.180Z,0
2017-01-19T06:47:21.197Z,0
2017-01-19T06:48:21.221Z,0
2017-01-19T06:49:20.854Z,0
2017-01-19T06:50:22.067Z,0
2017-01-19T06:51:21.692Z,0
2017-01-19T06:52:21.317Z,0
2017-01-19T06:53:21.349Z,0
2017-01-19T06:54:20.978Z,0
2017-01-19T06:55:20.602Z,0
2017-01-19T06:56:21.424Z,0
2017-01-19T06:57:21.845Z,0
2017-01-19T06:58:21.473Z,0
2017-01-19T06:59:21.494Z,0
2017-01-19T07:00:21.916Z,0
2017-01-19T07:01:21.147Z,0
2017-01-19T07:02:21.176Z,0
2017-01-19T07:03:21.206Z,0
2017-01-19T07:04:21.225Z,0
2017-01-19T07:05:22.046Z,0
2017-01-19T07:06:21.263Z,0
2017-01-19T07:07:22.097Z,0
2017-01-19T07:08:22.524Z,0
2017-01-19T07:09:22.557Z,0
2017-01-19T07:10:22.166Z,0
2017-01-19T07:11:20.998Z,0
2017-01-19T07:12:21.034Z,0
2017-01-19T07:13:21.044Z,0
2017-01-19T07:14:21.473Z,0
2017-01-19T07:15:21.893Z,0
2017-01-19T07:16:21.926Z,0
2017-01-19T07:17:22.735Z,0
2017-01-19T07:18:21.967Z,0
2017-01-19T07:19:22.392Z,0
2017-01-19T07:20:22.413Z,0
2017-01-19T07:21:22.050Z,0
2017-01-19T07:22:22.470Z,0
2017-01-19T07:23:22.091Z,0
2017-01-19T07:24:22.148Z,0
2017-01-19T07:25:21.750Z,0
2017-01-19T07:26:22.173Z,0
2017-01-19T07:27:22.590Z,0
2017-01-19T07:28:23.014Z,0
2017-01-19T07:29:21.847Z,0
2017-01-19T07:30:22.288Z,0
2017-01-19T07:31:22.701Z,0
2017-01-19T07:32:21.925Z,0
2017-01-19T07:33:21.950Z,0
2017-01-19T07:34:22.371Z,0
2017-01-19T07:35:22.792Z,0
2017-01-19T07:36:22.419Z,0
2017-01-19T07:37:22.441Z,0
2017-01-19T07:38:22.077Z,0
2017-01-19T07:39:22.906Z,0
2017-01-19T07:40:22.129Z,0
2017-01-19T07:41:22.935Z,0
2017-01-19T07:42:22.563Z,0
2017-01-19T07:43:23.392Z,0
2017-01-19T07:44:23.436Z,0
2017-01-19T07:45:22.645Z,0
2017-01-19T07:46:22.273Z,0
2017-01-19T07:47:21.897Z,0
2017-01-19T07:48:22.726Z,0
2017-01-19T07:49:23.143Z,0
2017-01-19T07:50:22.772Z,0
2017-01-19T07:51:22.784Z,0
2017-01-19T07:52:23.209Z,0
2017-01-19T07:53:22.845Z,0
2017-01-19T07:54:22.874Z,0
2017-01-19T07:55:22.499Z,0
2017-01-19T07:56:22.520Z,0
2017-01-19T07:57:22.940Z,0
2017-01-19T07:58:22.573Z,5
2017-01-19T07:59:22.985Z,5
2017-01-19T08:00:23.806Z,5
2017-01-19T08:01:23.439Z,5
2017-01-19T08:02:23.068Z,5
2017-01-19T08:03:23.096Z,5
2017-01-19T08:04:23.129Z,5
2017-01-19T08:05:22.349Z,5
2017-01-19T08:06:22.760Z,5
2017-01-19T08:07:22.796Z,5
2017-01-19T08:08:23.216Z,5
2017-01-19T08:09:23.243Z,5
2017-01-19T08:10:23.269Z,5
2017-01-19T08:11:24.089Z,5
2017-01-19T08:12:23.715Z,5
2017-01-19T08:13:23.339Z,5
2017-01-19T08:14:22.967Z,5
2017-01-19T08:15:22.992Z,5
2017-01-19T08:16:23.025Z,5
2017-01-19T08:17:23.837Z,5
2017-01-19T08:18:24.270Z,5
2017-01-19T08:19:24.282Z,5
2017-01-19T08:20:23.515Z,5
2017-01-19T08:21:23.132Z,5
2017-01-19T08:22:23.557Z,5
2017-01-19T08:23:23.184Z,5
2017-01-19T08:24:23.614Z,5
2017-01-19T08:25:24.463Z,10
2017-01-19T08:26:24.048Z,10
2017-01-19T08:27:23.684Z,10
2017-01-19T08:28:23.321Z,10
2017-01-19T08:29:23.346Z,15
2017-01-19T08:30:23.778Z,15
2017-01-19T08:31:22.991Z,20
2017-01-19T08:32:24.196Z,25
2017-01-19T08:33:23.833Z,30
2017-01-19T08:34:24.665Z,30
2017-01-19T08:35:23.486Z,30
2017-01-19T08:36:24.314Z,30
2017-01-19T08:37:23.935Z,30
2017-01-19T08:38:23.960Z,35
2017-01-19T08:39:24.772Z,30
2017-01-19T08:40:24.413Z,30
2017-01-19T08:41:23.943Z,30
2017-01-19T08:42:24.851Z,35
2017-01-19T08:43:24.087Z,35
2017-01-19T08:44:24.508Z,35
2017-01-19T08:45:24.532Z,35
2017-01-19T08:46:23.766Z,35
2017-01-19T08:47:24.982Z,35
2017-01-19T08:48:23.415Z,35
2017-01-19T08:49:24.632Z,35
2017-01-19T08:50:24.657Z,35
2017-01-19T08:51:23.505Z,35
2017-01-19T08:52:24.705Z,35
2017-01-19T08:53:24.334Z,35
2017-01-19T08:54:24.360Z,35
2017-01-19T08:55:24.777Z,35
2017-01-19T08:56:24.410Z,35
2017-01-19T08:57:24.834Z,35
2017-01-19T08:58:24.851Z,35
2017-01-19T08:59:24.095Z,35
2017-01-19T09:00:24.109Z,35
2017-01-19T09:01:24.541Z,35
2017-01-19T09:02:24.949Z,35
2017-01-19T09:03:24.186Z,35
2017-01-19T09:04:24.215Z,35
2017-01-19T09:05:24.238Z,35
2017-01-19T09:06:25.469Z,35
2017-01-19T09:07:24.713Z,35
2017-01-19T09:08:24.705Z,35
2017-01-19T09:09:25.158Z,30
2017-01-19T09:10:24.366Z,30
2017-01-19T09:11:24.798Z,30
2017-01-19T09:12:24.809Z,30
2017-01-19T09:13:24.834Z,30
2017-01-19T09:14:25.255Z,30
2017-01-19T09:15:25.278Z,30
2017-01-19T09:16:24.511Z,30
2017-01-19T09:17:24.933Z,30
2017-01-19T09:18:25.352Z,30
2017-01-19T09:19:24.585Z,30
2017-01-19T09:20:25.409Z,30
2017-01-19T09:21:25.034Z,30
2017-01-19T09:22:24.663Z,30
2017-01-19T09:23:25.484Z,30
2017-01-19T09:24:25.128Z,30
2017-01-19T09:25:25.521Z,30
2017-01-19T09:26:25.557Z,30
2017-01-19T09:27:24.786Z,30
2017-01-19T09:28:25.195Z,30
2017-01-19T09:29:26.023Z,30
2017-01-19T09:30:25.656Z,35
2017-01-19T09:31:26.100Z,35
2017-01-19T09:32:25.308Z,35
2017-01-19T09:33:24.947Z,35
2017-01-19T09:34:24.986Z,35
2017-01-19T09:35:25.379Z,35
2017-01-19T09:36:26.193Z,35
2017-01-19T09:37:27.792Z,35
2017-01-19T09:38:25.457Z,35
2017-01-19T09:39:25.881Z,35
2017-01-19T09:40:24.714Z,35
2017-01-19T09:41:25.131Z,35
2017-01-19T09:42:25.564Z,35
2017-01-19T09:43:25.580Z,35
2017-01-19T09:44:25.217Z,35
2017-01-19T09:45:24.841Z,35
2017-01-19T09:46:26.038Z,35
2017-01-19T09:47:26.079Z,35
2017-01-19T09:48:25.311Z,35
2017-01-19T09:49:25.732Z,35
2017-01-19T09:50:26.153Z,35
2017-01-19T09:51:26.185Z,35
2017-01-19T09:52:25.408Z,35
2017-01-19T09:53:26.235Z,30
2017-01-19T09:54:25.855Z,30
2017-01-19T09:55:25.888Z,30
2017-01-19T09:56:26.697Z,30
2017-01-19T09:57:25.930Z,30
2017-01-19T09:58:25.559Z,30
2017-01-19T09:59:26.375Z,30
2017-01-19T10:00:25.611Z,30
2017-01-19T10:01:26.821Z,25
2017-01-19T10:02:26.454Z,25
2017-01-19T10:03:26.090Z,25
2017-01-19T10:04:25.326Z,25
2017-01-19T10:05:26.135Z,20
2017-01-19T10:06:25.764Z,20
2017-01-19T10:07:26.977Z,20
2017-01-19T10:08:26.609Z,20
2017-01-19T10:09:26.630Z,20
2017-01-19T10:10:26.264Z,20
2017-01-19T10:11:27.080Z,20
2017-01-19T10:12:26.318Z,20
2017-01-19T10:13:25.941Z,20
2017-01-19T10:14:25.578Z,20
2017-01-19T10:15:26.787Z,20
2017-01-19T10:16:26.812Z,25
2017-01-19T10:17:26.843Z,25
2017-01-19T10:18:27.257Z,25
2017-01-19T10:19:26.885Z,25
2017-01-19T10:20:26.122Z,25
2017-01-19T10:21:26.141Z,25
2017-01-19T10:22:25.777Z,25
2017-01-19T10:23:27.032Z,25
2017-01-19T10:24:27.022Z,25
2017-01-19T10:25:27.078Z,25
2017-01-19T10:26:27.067Z,25
2017-01-19T10:27:27.480Z,25
2017-01-19T10:28:27.126Z,25
2017-01-19T10:29:27.145Z,30
2017-01-19T10:30:26.379Z,30
2017-01-19T10:31:26.799Z,30
2017-01-19T10:32:27.219Z,30
2017-01-19T10:33:26.844Z,30
2017-01-19T10:34:27.657Z,30
2017-01-19T10:35:27.289Z,30
2017-01-19T10:36:27.310Z,30
2017-01-19T10:37:26.155Z,30
2017-01-19T10:38:27.376Z,35
2017-01-19T10:39:27.401Z,35
2017-01-19T10:40:26.629Z,35
2017-01-19T10:41:27.446Z,35
2017-01-19T10:42:27.466Z,35
2017-01-19T10:43:27.543Z,35
2017-01-19T10:44:26.335Z,35
2017-01-19T10:45:26.753Z,35
2017-01-19T10:46:26.773Z,30
2017-01-19T10:47:27.594Z,25
2017-01-19T10:48:27.235Z,25
2017-01-19T10:49:27.648Z,25
2017-01-19T10:50:27.672Z,25
2017-01-19T10:51:27.700Z,25
2017-01-19T10:52:27.734Z,25
2017-01-19T10:53:26.956Z,25
2017-01-19T10:54:26.987Z,25
2017-01-19T10:55:27.817Z,25
2017-01-19T10:56:27.465Z,25
2017-01-19T10:57:27.850Z,25
2017-01-19T10:58:28.278Z,25
2017-01-19T10:59:27.111Z,25
2017-01-19T11:00:27.144Z,25
2017-01-19T11:01:27.163Z,30
2017-01-19T11:02:27.190Z,25
2017-01-19T11:03:27.608Z,20
2017-01-19T11:04:27.643Z,20
2017-01-19T11:05:28.052Z,20
2017-01-19T11:06:28.081Z,20
2017-01-19T11:07:28.122Z,20
2017-01-19T11:08:26.946Z,25
2017-01-19T11:09:27.367Z,30
2017-01-19T11:10:27.400Z,35
2017-01-19T11:11:27.836Z,35
2017-01-19T11:12:27.445Z,30
2017-01-19T11:13:27.875Z,30
2017-01-19T11:14:28.283Z,30
2017-01-19T11:15:27.519Z,30
2017-01-19T11:16:27.948Z,30
2017-01-19T11:17:27.970Z,35
2017-01-19T11:18:28.392Z,35
2017-01-19T11:19:28.028Z,35
2017-01-19T11:20:28.435Z,40
2017-01-19T11:21:28.885Z,40
2017-01-19T11:22:28.085Z,40
2017-01-19T11:23:28.119Z,45
2017-01-19T11:24:28.151Z,45
2017-01-19T11:25:28.181Z,40
2017-01-19T11:26:28.200Z,40
2017-01-19T11:27:28.245Z,40
2017-01-19T11:28:28.250Z,40
2017-01-19T11:29:28.671Z,40
2017-01-19T11:30:29.095Z,40
2017-01-19T11:31:27.932Z,40
2017-01-19T11:32:28.353Z,40
2017-01-19T11:33:28.770Z,40
2017-01-19T11:34:28.807Z,40
2017-01-19T11:35:28.431Z,40
2017-01-19T11:36:29.249Z,40
2017-01-19T11:37:28.873Z,40
2017-01-19T11:38:28.506Z,40
2017-01-19T11:39:28.134Z,40
2017-01-19T11:40:28.559Z,40
2017-01-19T11:41:28.192Z,40
2017-01-19T11:42:28.609Z,40
2017-01-19T11:43:28.647Z,40
2017-01-19T11:44:29.479Z,40
2017-01-19T11:45:28.700Z,40
2017-01-19T11:46:29.104Z,40
2017-01-19T11:47:28.345Z,40
2017-01-19T11:48:28.770Z,35
2017-01-19T11:49:28.383Z,35
2017-01-19T11:50:28.816Z,35
2017-01-19T11:51:28.864Z,35
2017-01-19T11:52:28.473Z,35
2017-01-19T11:53:29.690Z,35
2017-01-19T11:54:28.915Z,35
2017-01-19T11:55:28.943Z,35
2017-01-19T11:56:28.966Z,30
2017-01-19T11:57:28.989Z,30
2017-01-19T11:58:29.024Z,30
2017-01-19T11:59:29.058Z,30
2017-01-19T12:00:29.075Z,30
2017-01-19T12:01:29.520Z,30
2017-01-19T12:02:29.917Z,30
2017-01-19T12:03:28.753Z,30
2017-01-19T12:04:28.777Z,25
2017-01-19T12:05:29.211Z,25
2017-01-19T12:06:29.228Z,25
2017-01-19T12:07:28.451Z,25
2017-01-19T12:08:28.481Z,25
2017-01-19T12:09:29.698Z,25
2017-01-19T12:10:29.725Z,25
2017-01-19T12:11:29.364Z,25
2017-01-19T12:12:29.376Z,20
2017-01-19T12:13:29.017Z,20
2017-01-19T12:14:29.427Z,20
2017-01-19T12:15:29.486Z,20
2017-01-19T12:16:29.483Z,20
2017-01-19T12:17:29.120Z,20
2017-01-19T12:18:29.933Z,20
2017-01-19T12:19:30.362Z,20
2017-01-19T12:20:29.187Z,20
2017-01-19T12:21:29.636Z,20
2017-01-19T12:22:29.240Z,20
2017-01-19T12:23:29.683Z,20
2017-01-19T12:24:29.682Z,20
2017-01-19T12:25:29.715Z,20
2017-01-19T12:26:30.536Z,20
2017-01-19T12:27:29.372Z,15
2017-01-19T12:28:30.233Z,15
2017-01-19T12:29:29.814Z,15
2017-01-19T12:30:29.851Z,15
2017-01-19T12:31:30.676Z,15
2017-01-19T12:32:29.108Z,15
2017-01-19T12:33:30.316Z,15
2017-01-19T12:34:30.362Z,15
2017-01-19T12:35:30.374Z,15
2017-01-19T12:36:30.786Z,15
2017-01-19T12:37:29.627Z,15
2017-01-19T12:38:30.047Z,15
2017-01-19T12:39:29.684Z,15
2017-01-19T12:40:29.701Z,15
2017-01-19T12:41:30.522Z,15
2017-01-19T12:42:30.538Z,15
2017-01-19T12:43:30.574Z,15
2017-01-19T12:44:30.191Z,15
2017-01-19T12:45:29.835Z,15
2017-01-19T12:46:30.252Z,10
2017-01-19T12:47:30.289Z,10
2017-01-19T12:48:30.303Z,10
2017-01-19T12:49:30.327Z,10
2017-01-19T12:50:30.738Z,10
2017-01-19T12:51:29.980Z,10
2017-01-19T12:52:30.413Z,10
2017-01-19T12:53:30.440Z,10
2017-01-19T12:54:30.061Z,10
2017-01-19T12:55:30.483Z,10
2017-01-19T12:56:30.115Z,10
2017-01-19T12:57:30.920Z,10
2017-01-19T12:58:31.343Z,10
2017-01-19T12:59:30.993Z,10
2017-01-19T13:00:30.609Z,10
2017-01-19T13:01:31.030Z,10
2017-01-19T13:02:30.654Z,10
2017-01-19T13:03:30.307Z,10
2017-01-19T13:04:30.320Z,10
2017-01-19T13:05:30.349Z,10
2017-01-19T13:06:31.554Z,10
2017-01-19T13:07:30.781Z,10
2017-01-19T13:08:30.815Z,10
2017-01-19T13:09:30.842Z,10
2017-01-19T13:10:30.072Z,10
2017-01-19T13:11:30.889Z,10
2017-01-19T13:12:30.509Z,10
2017-01-19T13:13:30.943Z,10
2017-01-19T13:14:31.755Z,10
2017-01-19T13:15:30.995Z,10
2017-01-19T13:16:30.608Z,10
2017-01-19T13:17:31.453Z,10
2017-01-19T13:18:31.074Z,10
2017-01-19T13:19:31.087Z,10
2017-01-19T13:20:31.905Z,10
2017-01-19T13:21:31.936Z,10
2017-01-19T13:22:31.561Z,10
2017-01-19T13:23:31.601Z,10
2017-01-19T13:24:30.418Z,10
2017-01-19T13:25:31.670Z,10
2017-01-19T13:26:31.679Z,10
2017-01-19T13:27:31.309Z,10
2017-01-19T13:28:31.713Z,10
2017-01-19T13:29:31.726Z,10
2017-01-19T13:30:32.171Z,10
2017-01-19T13:31:30.607Z,10
2017-01-19T13:32:31.419Z,10
2017-01-19T13:33:31.053Z,10
2017-01-19T13:34:31.077Z,10
2017-01-19T13:35:31.514Z,10
2017-01-19T13:36:31.919Z,10
2017-01-19T13:37:31.547Z,10
2017-01-19T13:38:31.568Z,10
2017-01-19T13:39:31.993Z,5
2017-01-19T13:40:30.822Z,5
2017-01-19T13:41:31.266Z,5
2017-01-19T13:42:31.274Z,5
2017-01-19T13:43:32.496Z,5
2017-01-19T13:44:31.723Z,5
2017-01-19T13:45:31.748Z,5
2017-01-19T13:46:32.194Z,5
2017-01-19T13:47:31.798Z,5
2017-01-19T13:48:31.422Z,5
2017-01-19T13:49:31.847Z,5
2017-01-19T13:50:31.875Z,5
2017-01-19T13:51:32.700Z,5
2017-01-19T13:52:32.321Z,5
2017-01-19T13:53:32.353Z,5
2017-01-19T13:54:32.366Z,5
2017-01-19T13:55:32.395Z,5
2017-01-19T13:56:32.019Z,5
2017-01-19T13:57:31.247Z,5
2017-01-19T13:58:32.469Z,5
2017-01-19T13:59:32.502Z,5
2017-01-19T14:00:32.525Z,5
2017-01-19T14:01:31.354Z,5
2017-01-19T14:02:31.383Z,5
2017-01-19T14:03:31.799Z,5
2017-01-19T14:04:31.821Z,5
2017-01-19T14:05:32.650Z,5
2017-01-19T14:06:32.274Z,5
2017-01-19T14:07:32.702Z,5
2017-01-19T14:08:32.328Z,5
2017-01-19T14:09:32.748Z,5
2017-01-19T14:10:31.589Z,5
2017-01-19T14:11:32.009Z,5
2017-01-19T14:12:32.818Z,5
2017-01-19T14:13:32.459Z,5
2017-01-19T14:14:32.470Z,5
2017-01-19T14:15:32.508Z,5
2017-01-19T14:16:32.124Z,5
2017-01-19T14:17:32.577Z,5
2017-01-19T14:18:31.790Z,5
2017-01-19T14:19:32.603Z,5
2017-01-19T14:20:31.856Z,5
2017-01-19T14:21:33.457Z,5
2017-01-19T14:22:33.473Z,5
2017-01-19T14:23:32.705Z,5
2017-01-19T14:24:33.122Z,5
2017-01-19T14:25:31.956Z,5
2017-01-19T14:26:32.388Z,5
2017-01-19T14:27:32.417Z,5
2017-01-19T14:28:32.828Z,5
2017-01-19T14:29:33.660Z,5
2017-01-19T14:30:33.678Z,5
2017-01-19T14:31:33.315Z,5
2017-01-19T14:32:32.544Z,5
2017-01-19T14:33:32.563Z,5
2017-01-19T14:34:33.374Z,5
2017-01-19T14:35:33.394Z,5